This is the latest recevied weather packets stored in our database for station/object WE1C. If no packets are shown the sender has not sent any weather packets the latest 1 day(s).
| Time | Temp. | Humidity | Pressure | Rain* | Wind** | Luminosity | Snow |
|---|---|---|---|---|---|---|---|
| 1778028795 | 18.33° C | 60% | 1038 hPa | 0 mm | - | 0 W/m² | - |
| 1778027884 | 18.89° C | 58% | 1038.1 hPa | 0 mm | - | 0 W/m² | - |
| 1778027581 | 18.89° C | 58% | 1038.2 hPa | 0 mm | - | 0 W/m² | - |
| 1778027277 | 18.89° C | 58% | 1038.1 hPa | 0 mm | - | 0 W/m² | - |
| 1778026367 | 19.44° C | 56% | 1037.9 hPa | 0 mm | - | 0 W/m² | - |
| 1778024550 | 20.56° C | 53% | 1037.2 hPa | 0 mm | - | 4 W/m² | - |
| 1778021825 | 21.67° C | 49% | 1036.7 hPa | 0 mm | - | 54 W/m² | - |
| 1778020308 | 22.78° C | 47% | 1036.4 hPa | 0 mm | - | 72 W/m² | - |
| 1778019089 | 23.33° C | 46% | 1036.2 hPa | 0 mm | - | 102 W/m² | - |
| 1778016971 | 24.44° C | 41% | 1035.9 hPa | 0 mm | - | 137 W/m² | - |
| 1778015456 | 25° C | 40% | 1035.6 hPa | 0 mm | - | 131 W/m² | - |
| 1778014547 | 26.11° C | 38% | 1035.7 hPa | 0 mm | - | 137 W/m² | - |
| 1778013942 | 26.67° C | 35% | 1035.3 hPa | 0 mm | - | 247 W/m² | - |
| 1778013639 | 26.11° C | 35% | 1035.4 hPa | 0 mm | - | 228 W/m² | - |
| 1778012122 | 26.67° C | 33% | 1035.6 hPa | 0 mm | - | 263 W/m² | - |
| 1778011517 | 26.67° C | 33% | 1035.8 hPa | 0 mm | - | 558 W/m² | - |
| 1778010299 | 26.67° C | 36% | 1035.7 hPa | 0 mm | - | 623 W/m² | - |
| 1778009393 | 27.78° C | 34% | 1035.7 hPa | 0 mm | - | 683 W/m² | - |
| 1778008789 | 27.78° C | 33% | 1035.7 hPa | 0 mm | - | 695 W/m² | - |
| 1778008488 | 27.78° C | 33% | 1035.6 hPa | 0 mm | - | 691 W/m² | - |
* Rain latest hour (hover to see other rain measurements)
** Current wind speed in m/s (hover to see current wind gust speed)